DLH5TW EDDV-EDDF
Flight info
| Callsign | DLH5TW |
|---|---|
| Flight time | 0h 34m |
| Altitude | 17000 |
| Route | TOLTA1F TOLTA T154 ROBAR T152 KERAX KERAX5A |
| Aircraft | A320/M-SDE3FGHIRWY/LB1 |
Departure
| Time | 2026-05-04 16:16 |
|---|---|
| Airport | Hannover Airport (EDDV) |
Arrival
| Time | 2026-05-04 16:50 |
|---|---|
| Airport | Frankfurt Main Airport (EDDF) |
| Time | Latitude | Longitude | Altitude | Speed | Heading |
|---|---|---|---|---|---|
| 2026-05-04 16:00 | 52.45835 | 9.69389 | 179 ft | 0 kts | 30° |
| 2026-05-04 16:07 | 52.45832 | 9.69386 | 179 ft | 2 kts | 30° |
| 2026-05-04 16:08 | 52.45818 | 9.69373 | 178 ft | 2 kts | 30° |
| 2026-05-04 16:08 | 52.45776 | 9.69333 | 178 ft | 2 kts | 30° |
| 2026-05-04 16:09 | 52.45760 | 9.69296 | 178 ft | 0 kts | 93° |
| 2026-05-04 16:11 | 52.45758 | 9.69350 | 178 ft | 9 kts | 93° |
| 2026-05-04 16:12 | 52.45678 | 9.69575 | 178 ft | 10 kts | 94° |
| 2026-05-04 16:12 | 52.45597 | 9.70016 | 179 ft | 15 kts | 92° |
| 2026-05-04 16:13 | 52.45586 | 9.70416 | 179 ft | 20 kts | 92° |
| 2026-05-04 16:13 | 52.45572 | 9.70910 | 179 ft | 19 kts | 93° |
| 2026-05-04 16:14 | 52.45435 | 9.71100 | 197 ft | 10 kts | 184° |
| 2026-05-04 16:14 | 52.45404 | 9.71033 | 191 ft | 0 kts | 274° |
| 2026-05-04 16:15 | 52.45508 | 9.67533 | 480 ft | 164 kts | 276° |
| 2026-05-04 16:16 | 52.45605 | 9.63721 | 1759 ft | 178 kts | 273° |
| 2026-05-04 16:16 | 52.45771 | 9.56728 | 3238 ft | 221 kts | 272° |
| 2026-05-04 16:17 | 52.44549 | 9.52392 | 5005 ft | 223 kts | 215° |
| 2026-05-04 16:18 | 52.40515 | 9.48688 | 7665 ft | 222 kts | 212° |
| 2026-05-04 16:18 | 52.39162 | 9.47404 | 8447 ft | 226 kts | 212° |
| 2026-05-04 16:19 | 52.35463 | 9.43875 | 10558 ft | 234 kts | 212° |
| 2026-05-04 16:19 | 52.32367 | 9.41810 | 11680 ft | 264 kts | 188° |
| 2026-05-04 16:20 | 52.25953 | 9.42698 | 12124 ft | 347 kts | 177° |
| 2026-05-04 16:20 | 52.20987 | 9.43453 | 13255 ft | 364 kts | 177° |
| 2026-05-04 16:21 | 52.13273 | 9.44638 | 15263 ft | 374 kts | 177° |
| 2026-05-04 16:22 | 52.08060 | 9.45418 | 16557 ft | 379 kts | 177° |
| 2026-05-04 16:22 | 52.00089 | 9.46611 | 18409 ft | 388 kts | 178° |
| 2026-05-04 16:23 | 51.91943 | 9.47802 | 19991 ft | 395 kts | 178° |
| 2026-05-04 16:24 | 51.80815 | 9.49443 | 22038 ft | 404 kts | 177° |
| 2026-05-04 16:25 | 51.75183 | 9.50280 | 22888 ft | 408 kts | 178° |
| 2026-05-04 16:26 | 51.63990 | 9.46742 | 22967 ft | 421 kts | 211° |
| 2026-05-04 16:26 | 51.56416 | 9.39547 | 22970 ft | 421 kts | 211° |
| 2026-05-04 16:27 | 51.51355 | 9.34793 | 22950 ft | 421 kts | 211° |
| 2026-05-04 16:28 | 51.43597 | 9.28208 | 22934 ft | 421 kts | 199° |
| 2026-05-04 16:28 | 51.34843 | 9.27064 | 22934 ft | 425 kts | 180° |
| 2026-05-04 16:29 | 51.22962 | 9.27621 | 22939 ft | 426 kts | 181° |
| 2026-05-04 16:30 | 51.14055 | 9.28034 | 22927 ft | 427 kts | 181° |
| 2026-05-04 16:31 | 51.08120 | 9.28222 | 22931 ft | 426 kts | 182° |
| 2026-05-04 16:31 | 50.99180 | 9.27938 | 22373 ft | 425 kts | 184° |
| 2026-05-04 16:32 | 50.90487 | 9.30175 | 21373 ft | 426 kts | 159° |
| 2026-05-04 16:33 | 50.85294 | 9.34638 | 19921 ft | 421 kts | 153° |
| 2026-05-04 16:33 | 50.80210 | 9.39106 | 18587 ft | 414 kts | 153° |
| 2026-05-04 16:34 | 50.75208 | 9.43452 | 17298 ft | 405 kts | 153° |
| 2026-05-04 16:34 | 50.72783 | 9.45548 | 17119 ft | 389 kts | 153° |
| 2026-05-04 16:35 | 50.66169 | 9.51259 | 15897 ft | 339 kts | 153° |
| 2026-05-04 16:35 | 50.59999 | 9.56374 | 13903 ft | 333 kts | 160° |
| 2026-05-04 16:36 | 50.57757 | 9.57281 | 13380 ft | 334 kts | 173° |
| 2026-05-04 16:36 | 50.53219 | 9.57690 | 12782 ft | 322 kts | 178° |
| 2026-05-04 16:37 | 50.48782 | 9.58069 | 11978 ft | 316 kts | 178° |
| 2026-05-04 16:37 | 50.46589 | 9.58258 | 11565 ft | 314 kts | 177° |
| 2026-05-04 16:37 | 50.42298 | 9.57402 | 10954 ft | 310 kts | 196° |
| 2026-05-04 16:38 | 50.39022 | 9.53226 | 10963 ft | 317 kts | 240° |
| 2026-05-04 16:39 | 50.39084 | 9.41792 | 10243 ft | 374 kts | 278° |
| 2026-05-04 16:39 | 50.40087 | 9.33930 | 9853 ft | 354 kts | 278° |
| 2026-05-04 16:40 | 50.40554 | 9.26571 | 9210 ft | 344 kts | 265° |
| 2026-05-04 16:40 | 50.39552 | 9.19164 | 8430 ft | 348 kts | 238° |
| 2026-05-04 16:41 | 50.36099 | 9.14114 | 7670 ft | 341 kts | 214° |
| 2026-05-04 16:41 | 50.30250 | 9.07834 | 6978 ft | 337 kts | 214° |
| 2026-05-04 16:42 | 50.24463 | 9.01605 | 6848 ft | 334 kts | 214° |
| 2026-05-04 16:43 | 50.20678 | 8.97511 | 5522 ft | 329 kts | 214° |
| 2026-05-04 16:43 | 50.17078 | 8.93658 | 5102 ft | 301 kts | 214° |
| 2026-05-04 16:43 | 50.15396 | 8.91871 | 5001 ft | 281 kts | 214° |
| 2026-05-04 16:44 | 50.11977 | 8.84579 | 4782 ft | 202 kts | 249° |
| 2026-05-04 16:45 | 50.11044 | 8.80609 | 4232 ft | 191 kts | 249° |
| 2026-05-04 16:46 | 50.09686 | 8.74859 | 3428 ft | 185 kts | 251° |
| 2026-05-04 16:46 | 50.08799 | 8.71111 | 2893 ft | 185 kts | 252° |
| 2026-05-04 16:47 | 50.07910 | 8.67357 | 2376 ft | 185 kts | 252° |
| 2026-05-04 16:47 | 50.07066 | 8.63809 | 1882 ft | 157 kts | 251° |
| 2026-05-04 16:48 | 50.06039 | 8.59487 | 1255 ft | 138 kts | 251° |
| 2026-05-04 16:48 | 50.05706 | 8.58086 | 1029 ft | 138 kts | 252° |
| 2026-05-04 16:49 | 50.05042 | 8.55296 | 673 ft | 138 kts | 252° |
| 2026-05-04 16:49 | 50.04389 | 8.52556 | 348 ft | 114 kts | 250° |
| 2026-05-04 16:50 | 50.04084 | 8.51513 | 350 ft | 27 kts | 225° |
| 2026-05-04 16:50 | 50.03906 | 8.51405 | 351 ft | 10 kts | 113° |
| 2026-05-04 16:51 | 50.03948 | 8.51628 | 348 ft | 16 kts | 69° |
| 2026-05-04 16:51 | 50.03989 | 8.51803 | 348 ft | 18 kts | 69° |
| 2026-05-04 16:51 | 50.04082 | 8.52182 | 355 ft | 19 kts | 69° |
| 2026-05-04 16:52 | 50.04183 | 8.52608 | 355 ft | 23 kts | 70° |
| 2026-05-04 16:52 | 50.04240 | 8.52844 | 351 ft | 23 kts | 69° |
| 2026-05-04 16:53 | 50.04347 | 8.53284 | 352 ft | 23 kts | 69° |
| 2026-05-04 16:53 | 50.04427 | 8.53976 | 346 ft | 21 kts | 84° |
| 2026-05-04 16:54 | 50.04441 | 8.54205 | 350 ft | 19 kts | 85° |
| 2026-05-04 16:55 | 50.04328 | 8.54757 | 351 ft | 0 kts | 150° |
| 2026-05-04 16:55 | 50.04312 | 8.54770 | 350 ft | 10 kts | 154° |
| 2026-05-04 16:56 | 50.04171 | 8.54852 | 349 ft | 10 kts | 160° |
| 2026-05-04 16:56 | 50.04075 | 8.54907 | 351 ft | 0 kts | 160° |
| 2026-05-04 16:57 | 50.04067 | 8.54911 | 353 ft | 5 kts | 160° |
| 2026-05-04 16:57 | 50.03915 | 8.55002 | 350 ft | 13 kts | 159° |
| 2026-05-04 16:58 | 50.03932 | 8.55462 | 353 ft | 24 kts | 69° |
| 2026-05-04 16:58 | 50.03993 | 8.55717 | 346 ft | 26 kts | 70° |
| 2026-05-04 16:59 | 50.04126 | 8.56276 | 353 ft | 28 kts | 70° |
| 2026-05-04 17:00 | 50.04381 | 8.57343 | 348 ft | 27 kts | 69° |
| 2026-05-04 17:00 | 50.04578 | 8.58166 | 350 ft | 29 kts | 70° |
| 2026-05-04 17:01 | 50.04704 | 8.58686 | 352 ft | 22 kts | 66° |
| 2026-05-04 17:01 | 50.04785 | 8.59002 | 352 ft | 9 kts | 66° |
| 2026-05-04 17:02 | 50.04860 | 8.58982 | 353 ft | 2 kts | 339° |
| 2026-05-04 17:02 | 50.04868 | 8.58978 | 350 ft | 0 kts | 340° |